1221-й км

Карта отелей и гостиниц, располагающихся рядом с аэропортом 1221-й км :

1221-й км Свердловская область 60° 49' 13.7712" N, 60° 34' 34.0788" E
1221-й км Свердловская область 60° 49' 13.7712" N, 60° 34' 34.0788" E
Код аэродрома ИКАО
HDV0
Код аэродрома RU
ХДЖ0
Координаты
N60.82049° E060.57613°
Превышение над уровнем моря
76
Основная полоса
34/16
Курс магнитный
342,9/162,9
Длина основной ВПП
20
Ширина основной ВПП
20
Покрытие основной ВПП
Твёрдое
Освещение ВПП
Нет
Тип: 
Вертодром
Класс аэродрома: 
Принадлежность: 
ГА
Статус: 
Действующий
Сайт: 
E-mail аэродрома: 
Страна: 
Россия
Регион: 
Свердловская область
Город: 
Дополнительная информация: 
Владелец ПП: нет данных.

Найти трансфер

С помощью этой формы Вы можете найти трансфер из аэропорта 1221-й км в город, аэропорт или вокзал:

Карта места

Javascript is required to view this map.

Погода в аэропортах:

Авиационная погода в Жезказгане

Регион: 
Погода METAR: 
UAKD 240237Z 00000MPS 1400 R04/1900D BR SCT010 M25/M29 Q1036 R04/890040 NOSIG RMK QFE743/0990
Время наблюдения
2021-01-24T02:37:00Z
Температура C
-25.0
Точка росы
-29.0
Направление ветра
0
Скорость ветра (узлы)
0
Метео видимость
0.87
Явления погоды
BR
Условия полета
LIFR
Аэропорт подробнее: 

Авиационная погода в Ханты-Мансийске

Регион: 
Погода METAR: 
USHH 251830Z 14005MPS 1800 R06/P2000U SN BKN017 M25/M28 Q1026 R06/491038 TEMPO 0800 +SN OVC003
Время наблюдения
2021-01-25T18:30:00Z
Температура C
-25.0
Точка росы
-28.0
Направление ветра
140
Скорость ветра (узлы)
10
Метео видимость
1.12
Явления погоды
SN
Условия полета
IFR
Аэропорт подробнее: 

Авиационная погода в Ивало

Регион: 
Погода METAR: 
EFIV 251850Z VRB02KT 9999 -SHSN OVC011 M12/M13 Q1005
Время наблюдения
2021-01-25T18:50:00Z
Температура C
-12.0
Точка росы
-13.0
Направление ветра
0
Скорость ветра (узлы)
2
Метео видимость
6.21
Явления погоды
-SHSN
Условия полета
MVFR

Авиационная погода в Курске

Погода METAR: 
UUOK 251830Z 14008MPS 3000 -RA BR OVC003 01/01 Q1008 R12/190050 NOSIG RMK QBB110 QFE738/0985
Время наблюдения
2021-01-25T18:30:00Z
Температура C
1.0
Точка росы
1.0
Направление ветра
140
Скорость ветра (узлы)
16
Метео видимость
1.86
Явления погоды
-RA BR
Условия полета
LIFR
Аэропорт подробнее: